createdAt,value
2018-02-13T00:00:10.109Z,9.17
2018-02-13T00:02:37.572Z,8.67
2018-02-13T00:05:05.061Z,9.30
2018-02-13T00:07:32.516Z,9.20
2018-02-13T00:09:59.984Z,9.30
2018-02-13T00:12:27.477Z,9.53
2018-02-13T00:14:55.032Z,8.23
2018-02-13T00:17:23.305Z,9.57
2018-02-13T00:19:51.656Z,9.23
2018-02-13T00:22:19.114Z,9.60
2018-02-13T00:24:46.584Z,9.60
2018-02-13T00:27:14.046Z,8.67
2018-02-13T00:29:41.807Z,9.13
2018-02-13T00:32:09.268Z,9.57
2018-02-13T00:34:37.283Z,9.60
2018-02-13T00:37:04.744Z,9.80
2018-02-13T00:39:32.204Z,9.33
2018-02-13T00:41:59.670Z,9.43
2018-02-13T00:44:27.136Z,9.90
2018-02-13T00:46:54.607Z,10.73
2018-02-13T00:49:22.064Z,8.83
2018-02-13T00:51:49.539Z,9.07
2018-02-13T00:54:17.775Z,8.37
2018-02-13T00:56:45.239Z,9.00
2018-02-13T00:59:12.695Z,8.07
2018-02-13T01:01:40.165Z,8.47
2018-02-13T01:04:07.643Z,8.23
2018-02-13T01:06:35.871Z,8.57
2018-02-13T01:09:03.327Z,7.67
2018-02-13T01:11:30.787Z,8.20
2018-02-13T01:13:58.271Z,8.10
2018-02-13T01:16:25.731Z,8.73
2018-02-13T07:33:03.061Z,6.07
2018-02-13T07:35:30.523Z,6.63
2018-02-13T07:37:58.013Z,6.07
2018-02-13T07:40:26.236Z,7.07
2018-02-13T07:42:53.701Z,7.63
2018-02-13T07:45:21.951Z,6.77
2018-02-13T07:47:49.408Z,8.27
2018-02-13T07:50:16.870Z,7.90
2018-02-13T07:52:44.339Z,7.40
2018-02-13T07:55:11.815Z,7.53
2018-02-13T07:57:39.526Z,7.40
2018-02-13T08:00:07.028Z,6.43
2018-02-13T08:02:34.493Z,6.50
2018-02-13T08:05:01.951Z,6.40
2018-02-13T08:07:29.417Z,6.57
2018-02-13T08:09:56.904Z,7.33
2018-02-13T08:12:24.367Z,5.93
2018-02-13T08:14:51.823Z,6.67
2018-02-13T08:17:19.284Z,6.67
2018-02-13T08:19:46.758Z,6.40
2018-02-13T08:22:14.278Z,6.50
2018-02-13T08:24:41.800Z,7.37
2018-02-13T08:27:09.303Z,6.87
2018-02-13T08:29:37.520Z,6.87
2018-02-13T08:32:05.113Z,6.57
2018-02-13T08:34:32.577Z,6.37
2018-02-13T08:37:00.811Z,7.20
2018-02-13T08:39:28.272Z,6.80
2018-02-13T08:41:55.753Z,6.80
2018-02-13T08:44:23.221Z,6.47
2018-02-13T08:46:51.455Z,6.00
2018-02-13T08:49:18.969Z,5.60
2018-02-13T08:51:47.199Z,5.87
2018-02-13T08:54:14.695Z,6.37
2018-02-13T08:56:42.935Z,6.03
2018-02-13T08:59:10.410Z,6.47
2018-02-13T09:01:37.895Z,6.53
2018-02-13T09:04:05.365Z,6.00
2018-02-13T09:06:32.832Z,6.53
2018-02-13T09:09:01.305Z,6.53
2018-02-13T09:11:28.844Z,7.13
2018-02-13T09:13:56.303Z,7.13
2018-02-13T09:16:23.783Z,7.77
2018-02-13T09:18:51.240Z,8.13
2018-02-13T09:21:18.770Z,8.10
2018-02-13T09:23:46.250Z,7.40
2018-02-13T09:26:13.718Z,9.67
2018-02-13T09:28:41.183Z,7.93
2018-02-13T09:31:08.670Z,7.30
2018-02-13T09:33:36.124Z,6.30
2018-02-13T09:36:03.599Z,5.30
2018-02-13T09:38:31.863Z,5.47
2018-02-13T09:40:59.328Z,4.80
2018-02-13T09:43:27.554Z,4.17
2018-02-13T09:45:55.033Z,4.80
2018-02-13T09:48:22.484Z,4.03
2018-02-13T09:50:50.246Z,4.73
2018-02-13T09:53:17.783Z,4.47
2018-02-13T09:55:45.267Z,4.80
2018-02-13T09:58:12.776Z,4.47
2018-02-13T10:00:40.605Z,4.47
2018-02-13T10:03:10.285Z,4.70
2018-02-13T10:05:37.971Z,4.43
2018-02-13T10:08:05.718Z,5.87
2018-02-13T10:10:33.211Z,4.40
2018-02-13T10:13:01.466Z,4.33
2018-02-13T10:15:28.936Z,4.67
2018-02-13T10:17:57.202Z,4.93
2018-02-13T10:20:24.743Z,5.27
2018-02-13T10:22:52.250Z,4.43
2018-02-13T10:25:19.731Z,4.87
2018-02-13T10:27:47.215Z,4.50
2018-02-13T10:30:14.688Z,6.23
2018-02-13T10:32:42.192Z,4.30
2018-02-13T10:35:09.675Z,4.83
2018-02-13T10:37:37.131Z,4.93
2018-02-13T10:40:04.646Z,5.30
2018-02-13T10:42:32.183Z,4.60
2018-02-13T10:44:59.639Z,4.77
2018-02-13T10:47:27.224Z,5.20
2018-02-13T10:49:55.476Z,5.43
2018-02-13T10:52:23.337Z,6.07
2018-02-13T10:54:50.904Z,4.80
2018-02-13T10:57:19.154Z,5.53
2018-02-13T10:59:46.623Z,5.30
2018-02-13T11:02:19.840Z,4.77
2018-02-13T11:04:48.063Z,5.30
2018-02-13T11:07:15.585Z,5.00
2018-02-13T11:09:43.067Z,3.70
2018-02-13T11:12:10.647Z,3.27
2018-02-13T11:14:38.153Z,3.10
2018-02-13T11:17:05.616Z,3.33
2018-02-13T11:19:33.123Z,3.67
2018-02-13T11:22:00.655Z,3.73
2018-02-13T11:24:28.157Z,3.50
2018-02-13T11:26:55.644Z,3.93
2018-02-13T11:29:23.129Z,5.30
2018-02-13T11:31:50.646Z,4.60
2018-02-13T11:34:18.938Z,3.97
2018-02-13T11:36:46.400Z,4.30
2018-02-13T11:39:13.887Z,3.20
2018-02-13T11:41:41.346Z,3.10
2018-02-13T11:44:08.820Z,3.30
2018-02-13T11:46:36.324Z,2.93
2018-02-13T11:49:03.860Z,3.47
2018-02-13T11:51:32.107Z,3.23
2018-02-13T11:53:59.624Z,3.00
2018-02-13T11:56:27.104Z,3.30
2018-02-13T11:58:54.629Z,3.30
2018-02-13T12:01:22.134Z,3.07
2018-02-13T12:03:50.464Z,4.13
2018-02-13T12:06:17.971Z,4.13
2018-02-13T12:08:45.517Z,4.20
2018-02-13T12:11:12.999Z,4.00
2018-02-13T12:13:40.515Z,3.33
2018-02-13T12:16:08.079Z,3.50
2018-02-13T12:18:35.604Z,2.93
2018-02-13T12:21:03.223Z,3.30
2018-02-13T12:23:31.498Z,3.47
2018-02-13T12:25:59.123Z,2.97
2018-02-13T12:28:26.657Z,3.30
2018-02-13T12:30:54.135Z,3.23
2018-02-13T12:33:21.596Z,3.63
2018-02-13T12:35:49.067Z,3.83
2018-02-13T12:38:16.525Z,3.13
2018-02-13T12:40:44.011Z,3.03
2018-02-13T12:43:11.483Z,3.07
2018-02-13T12:45:39.715Z,3.40
2018-02-13T12:48:07.224Z,3.97
2018-02-13T12:50:34.698Z,3.63
2018-02-13T12:53:02.159Z,3.50
2018-02-13T12:55:29.638Z,3.50
2018-02-13T12:57:57.112Z,4.03
2018-02-13T13:00:24.580Z,3.20
2018-02-13T13:02:52.087Z,3.57
2018-02-13T13:05:19.564Z,2.83
2018-02-13T13:07:47.031Z,3.57
2018-02-13T13:10:14.538Z,3.07
2018-02-13T13:12:42.807Z,3.13
2018-02-13T13:15:10.264Z,2.80
2018-02-13T13:17:40.429Z,3.97
2018-02-13T13:20:07.959Z,3.37
2018-02-13T13:22:35.529Z,3.23
2018-02-13T13:25:03.048Z,2.73
2018-02-13T13:27:31.343Z,2.80
2018-02-13T13:29:58.806Z,2.90
2018-02-13T13:32:26.410Z,2.77
2018-02-13T13:34:53.887Z,2.83
2018-02-13T13:37:21.512Z,2.60
2018-02-13T13:39:49.038Z,3.10
2018-02-13T13:42:16.582Z,2.67
2018-02-13T13:44:44.057Z,2.83
2018-02-13T13:47:11.523Z,3.40
2018-02-13T13:49:38.984Z,3.00
2018-02-13T13:52:06.440Z,2.80
2018-02-13T13:54:33.908Z,4.00
2018-02-13T13:57:02.281Z,3.10
2018-02-13T13:59:29.767Z,2.90
2018-02-13T14:01:57.245Z,2.63
2018-02-13T14:04:24.692Z,2.70
2018-02-13T14:06:52.150Z,3.00
2018-02-13T14:09:19.593Z,2.47
2018-02-13T14:11:47.068Z,3.03
2018-02-13T14:14:14.510Z,2.70
2018-02-13T14:16:41.998Z,2.30
2018-02-13T14:19:10.205Z,2.70
2018-02-13T14:21:37.659Z,2.60
2018-02-13T14:24:05.127Z,2.57
2018-02-13T14:26:32.586Z,3.20
2018-02-13T14:29:00.045Z,2.63
2018-02-13T14:31:28.283Z,2.97
2018-02-13T14:33:55.746Z,2.37
2018-02-13T14:36:23.227Z,2.23
2018-02-13T14:38:50.662Z,2.83
2018-02-13T14:41:18.140Z,2.73
2018-02-13T14:43:45.709Z,2.80
2018-02-13T14:46:13.161Z,2.60
2018-02-13T14:48:40.620Z,2.60
2018-02-13T14:51:08.065Z,2.70
2018-02-13T14:53:35.511Z,3.37
2018-02-13T14:56:03.069Z,3.00
2018-02-13T14:58:30.508Z,2.83
2018-02-13T15:00:57.973Z,2.43
2018-02-13T15:03:25.418Z,2.93
2018-02-13T15:05:52.863Z,3.07
2018-02-13T15:08:21.409Z,2.53
2018-02-13T15:10:48.862Z,2.23
2018-02-13T15:13:16.432Z,2.70
2018-02-13T15:15:45.802Z,2.80
2018-02-13T15:18:13.299Z,2.40
2018-02-13T15:20:40.736Z,2.10
2018-02-13T15:23:09.016Z,2.77
2018-02-13T15:25:36.502Z,2.43
2018-02-13T15:28:04.792Z,3.10
2018-02-13T15:30:32.331Z,2.93
2018-02-13T15:32:59.805Z,2.20
2018-02-13T15:35:27.302Z,2.37
2018-02-13T15:37:54.816Z,3.37
2018-02-13T15:40:22.315Z,2.60
2018-02-13T15:42:49.762Z,2.30
2018-02-13T15:45:17.220Z,2.77
2018-02-13T15:47:44.842Z,2.50
2018-02-13T15:50:12.323Z,2.70
2018-02-13T15:52:39.849Z,2.33
2018-02-13T15:55:07.297Z,2.27
2018-02-13T15:57:35.539Z,2.97
2018-02-13T16:00:03.027Z,2.63
2018-02-13T16:02:30.499Z,2.80
2018-02-13T16:04:57.944Z,3.33
2018-02-13T16:07:26.176Z,3.00
2018-02-13T16:09:53.651Z,2.60
2018-02-13T16:12:21.077Z,2.87
2018-02-13T16:14:48.566Z,3.37
2018-02-13T16:17:16.002Z,3.40
2018-02-13T16:19:43.449Z,3.30
2018-02-13T16:22:10.904Z,3.27
2018-02-13T16:24:38.448Z,3.10
2018-02-13T16:27:05.944Z,3.57
2018-02-13T16:29:33.420Z,3.10
2018-02-13T16:32:00.870Z,3.50
2018-02-13T16:34:28.316Z,3.07
2018-02-13T16:36:55.761Z,3.33
2018-02-13T16:39:23.262Z,3.33
2018-02-13T16:41:51.475Z,3.90
2018-02-13T16:44:19.012Z,3.43
2018-02-13T16:46:46.462Z,3.13
2018-02-13T16:49:14.797Z,3.40
2018-02-13T16:51:42.411Z,3.77
2018-02-13T16:54:09.945Z,3.57
2018-02-13T16:56:38.273Z,4.03
2018-02-13T16:59:05.951Z,4.70
2018-02-13T17:01:33.532Z,4.20
2018-02-13T17:04:01.034Z,3.90
2018-02-13T17:06:28.477Z,4.00
2018-02-13T17:08:55.952Z,4.13
2018-02-13T17:11:23.392Z,4.77
2018-02-13T17:13:50.860Z,3.73
2018-02-13T17:16:18.340Z,5.07
2018-02-13T17:18:45.838Z,4.60
2018-02-13T17:21:14.068Z,4.80
2018-02-13T17:23:41.569Z,4.47
2018-02-13T17:26:09.119Z,4.90
2018-02-13T17:28:36.647Z,5.00
2018-02-13T17:31:04.235Z,6.73
2018-02-13T17:33:32.588Z,8.00
2018-02-13T17:36:00.125Z,8.77
2018-02-13T17:38:27.576Z,6.60
2018-02-13T17:40:55.137Z,5.37
2018-02-13T17:43:22.665Z,6.20
2018-02-13T17:45:50.183Z,8.33
2018-02-13T17:48:17.688Z,7.47
2018-02-13T17:50:45.967Z,6.43
2018-02-13T17:53:13.470Z,5.00
2018-02-13T17:55:40.955Z,4.47
2018-02-13T17:58:08.425Z,4.90
2018-02-13T18:00:37.560Z,4.97
2018-02-13T18:03:05.029Z,4.77
2018-02-13T18:05:32.468Z,4.67
2018-02-13T18:08:00.063Z,4.70
2018-02-13T18:10:27.519Z,4.77
2018-02-13T18:12:54.969Z,5.20
2018-02-13T18:15:22.443Z,4.90
2018-02-13T18:17:49.899Z,6.07
2018-02-13T18:20:17.386Z,5.03
2018-02-13T18:22:45.600Z,5.60
2018-02-13T18:25:13.078Z,7.00
2018-02-13T18:27:40.540Z,7.23
2018-02-13T18:30:08.028Z,6.13
2018-02-13T18:32:35.517Z,7.97
2018-02-13T18:35:02.981Z,5.70
2018-02-13T18:37:30.488Z,6.47
2018-02-13T18:39:58.780Z,6.40
2018-02-13T18:42:27.012Z,6.10
2018-02-13T18:44:54.476Z,5.10
2018-02-13T18:47:21.922Z,5.43
2018-02-13T18:49:49.556Z,5.33
2018-02-13T18:54:46.380Z,7.20
2018-02-13T18:57:17.534Z,7.43
2018-02-13T18:59:45.060Z,6.90
2018-02-13T19:02:12.559Z,7.50
2018-02-13T19:04:40.992Z,7.47
2018-02-13T19:07:09.343Z,7.00
2018-02-13T19:09:36.868Z,7.57
2018-02-13T19:12:04.369Z,7.77
2018-02-13T19:14:31.867Z,4.97
2018-02-13T19:19:26.885Z,4.50
2018-02-13T19:21:54.368Z,4.00
2018-02-13T19:24:22.175Z,4.43
2018-02-13T19:26:49.762Z,4.53
2018-02-13T19:29:18.076Z,5.10
2018-02-13T19:31:45.592Z,4.33
2018-02-13T19:34:13.881Z,4.77
2018-02-13T19:36:41.366Z,4.50
2018-02-13T19:39:08.884Z,4.80
2018-02-13T19:41:37.140Z,4.87
2018-02-13T19:44:04.622Z,4.50
2018-02-13T19:46:32.892Z,4.40
2018-02-13T19:49:01.159Z,4.30
2018-02-13T19:51:29.425Z,4.67
2018-02-13T19:53:58.597Z,5.10
2018-02-13T19:56:26.150Z,4.80
2018-02-13T19:58:53.614Z,4.97
2018-02-13T20:01:21.093Z,5.90
2018-02-13T20:03:48.582Z,4.50
2018-02-13T20:06:19.725Z,5.00
2018-02-13T20:08:47.192Z,4.83
2018-02-13T20:11:14.676Z,6.37
2018-02-13T20:13:42.524Z,5.73
2018-02-13T20:16:09.995Z,5.23
2018-02-13T20:18:39.865Z,5.03
2018-02-13T20:21:07.411Z,4.70
2018-02-13T20:23:35.758Z,5.27
2018-02-13T20:26:03.281Z,5.13
2018-02-13T20:28:30.836Z,4.70
2018-02-13T20:30:58.435Z,4.53
2018-02-13T20:33:27.336Z,4.23
2018-02-13T20:35:55.426Z,5.60
2018-02-13T20:38:23.873Z,5.33
2018-02-13T20:40:51.465Z,5.17
2018-02-13T20:43:19.004Z,4.60
2018-02-13T20:45:46.593Z,5.10
2018-02-13T20:48:14.526Z,4.83
2018-02-13T20:50:46.030Z,5.07
2018-02-13T20:56:07.349Z,4.80
2018-02-13T20:58:36.561Z,4.67
2018-02-13T21:01:05.188Z,4.87
2018-02-13T21:03:32.677Z,4.30
2018-02-13T21:06:00.905Z,4.57
2018-02-13T21:08:28.868Z,4.70
2018-02-13T21:10:56.623Z,4.50
2018-02-13T21:13:24.144Z,4.23
2018-02-13T21:15:51.646Z,4.73
2018-02-13T21:18:19.139Z,4.37
2018-02-13T21:20:46.617Z,4.47
2018-02-13T21:23:14.869Z,4.57
2018-02-13T21:25:42.373Z,3.90
2018-02-13T21:28:09.864Z,3.90
2018-02-13T21:30:37.491Z,4.50
2018-02-13T21:33:05.013Z,4.37
2018-02-13T21:35:32.777Z,4.40
2018-02-13T21:38:00.256Z,4.33
2018-02-13T21:40:28.878Z,4.93
2018-02-13T21:42:56.344Z,4.97
2018-02-13T21:45:23.795Z,4.83
2018-02-13T21:47:51.292Z,4.10
2018-02-13T21:50:18.762Z,4.10
2018-02-13T21:52:47.012Z,4.60
2018-02-13T21:55:14.493Z,4.17
2018-02-13T21:57:42.736Z,4.30
2018-02-13T22:00:10.213Z,4.47
2018-02-13T22:02:37.668Z,4.23
2018-02-13T22:05:05.895Z,5.17
2018-02-13T22:07:33.343Z,4.63
2018-02-13T22:10:00.796Z,4.37
2018-02-13T22:12:28.260Z,4.97
2018-02-13T22:14:55.699Z,4.93
2018-02-13T22:17:23.174Z,4.97
2018-02-13T22:19:50.622Z,5.00
2018-02-13T22:22:18.101Z,4.70
2018-02-13T22:24:45.565Z,4.87
2018-02-13T22:27:13.036Z,5.17
2018-02-13T22:29:40.473Z,5.43
2018-02-13T22:32:07.959Z,5.67
2018-02-13T22:34:36.201Z,5.20
2018-02-13T22:37:03.633Z,5.60
2018-02-13T22:39:31.127Z,5.90
2018-02-13T22:41:58.576Z,5.90
2018-02-13T22:44:26.014Z,5.20
2018-02-13T22:46:53.490Z,6.17
2018-02-13T22:49:20.952Z,5.43
2018-02-13T22:51:48.436Z,6.40
2018-02-13T22:54:16.639Z,5.03
2018-02-13T22:56:44.088Z,6.30
2018-02-13T22:59:11.537Z,5.00
2018-02-13T23:01:39.008Z,5.20
2018-02-13T23:04:06.485Z,5.00
2018-02-13T23:06:33.948Z,4.90
2018-02-13T23:09:01.408Z,5.07
2018-02-13T23:11:28.885Z,5.97
2018-02-13T23:13:56.324Z,5.40
2018-02-13T23:16:23.787Z,5.47
2018-02-13T23:18:51.253Z,5.93
2018-02-13T23:21:18.722Z,5.67
2018-02-13T23:23:46.153Z,5.20
2018-02-13T23:26:13.636Z,6.57
2018-02-13T23:28:41.091Z,5.60
2018-02-13T23:31:08.536Z,6.00
2018-02-13T23:33:36.004Z,5.23
2018-02-13T23:36:03.465Z,4.20
2018-02-13T23:38:30.941Z,5.80
2018-02-13T23:40:59.153Z,4.60
2018-02-13T23:43:26.644Z,4.27
2018-02-13T23:45:54.074Z,4.70
2018-02-13T23:48:21.509Z,4.83
2018-02-13T23:50:48.973Z,4.93
2018-02-13T23:53:16.453Z,4.50
2018-02-13T23:55:43.886Z,4.70
2018-02-13T23:58:11.336Z,4.53
